sensor_id;sensor_type;location;lat;lon;timestamp;P1;durP1;ratioP1;P2;durP2;ratioP2
42146;SDS011;27815;43.410;11.852;2023-05-23T00:02:35;8.90;;;5.85;;
42146;SDS011;27815;43.410;11.852;2023-05-23T00:06:41;8.23;;;5.55;;
42146;SDS011;27815;43.410;11.852;2023-05-23T00:10:48;7.65;;;4.68;;
42146;SDS011;27815;43.410;11.852;2023-05-23T00:14:51;8.68;;;5.72;;
42146;SDS011;27815;43.410;11.852;2023-05-23T00:18:54;9.10;;;5.13;;
42146;SDS011;27815;43.410;11.852;2023-05-23T00:23:00;10.93;;;6.03;;
42146;SDS011;27815;43.410;11.852;2023-05-23T00:27:04;11.23;;;5.63;;
42146;SDS011;27815;43.410;11.852;2023-05-23T00:31:07;9.98;;;5.85;;
42146;SDS011;27815;43.410;11.852;2023-05-23T00:35:16;7.88;;;5.05;;
42146;SDS011;27815;43.410;11.852;2023-05-23T00:39:19;7.72;;;5.30;;
42146;SDS011;27815;43.410;11.852;2023-05-23T00:43:22;8.38;;;4.68;;
42146;SDS011;27815;43.410;11.852;2023-05-23T00:47:25;6.93;;;4.50;;
42146;SDS011;27815;43.410;11.852;2023-05-23T00:51:28;10.02;;;5.72;;
42146;SDS011;27815;43.410;11.852;2023-05-23T00:55:32;7.40;;;4.85;;
42146;SDS011;27815;43.410;11.852;2023-05-23T00:59:36;9.15;;;5.28;;
42146;SDS011;27815;43.410;11.852;2023-05-23T01:03:39;7.82;;;4.40;;
42146;SDS011;27815;43.410;11.852;2023-05-23T01:07:47;6.45;;;4.70;;
42146;SDS011;27815;43.410;11.852;2023-05-23T01:16:46;8.93;;;5.50;;
42146;SDS011;27815;43.410;11.852;2023-05-23T01:21:11;8.90;;;5.13;;
42146;SDS011;27815;43.410;11.852;2023-05-23T01:29:53;8.35;;;5.15;;
42146;SDS011;27815;43.410;11.852;2023-05-23T01:33:59;7.40;;;4.88;;
42146;SDS011;27815;43.410;11.852;2023-05-23T01:38:08;7.47;;;4.57;;
42146;SDS011;27815;43.410;11.852;2023-05-23T01:42:14;9.73;;;4.97;;
42146;SDS011;27815;43.410;11.852;2023-05-23T01:46:18;6.22;;;4.25;;
42146;SDS011;27815;43.410;11.852;2023-05-23T01:50:23;8.02;;;5.28;;
42146;SDS011;27815;43.410;11.852;2023-05-23T01:54:28;8.57;;;4.68;;
42146;SDS011;27815;43.410;11.852;2023-05-23T01:58:32;7.40;;;5.57;;
42146;SDS011;27815;43.410;11.852;2023-05-23T02:02:53;7.20;;;4.55;;
42146;SDS011;27815;43.410;11.852;2023-05-23T02:06:57;10.45;;;6.75;;
42146;SDS011;27815;43.410;11.852;2023-05-23T02:11:12;7.60;;;4.70;;
42146;SDS011;27815;43.410;11.852;2023-05-23T02:15:21;7.55;;;4.78;;
42146;SDS011;27815;43.410;11.852;2023-05-23T02:19:26;6.93;;;4.65;;
42146;SDS011;27815;43.410;11.852;2023-05-23T02:23:29;8.38;;;5.30;;
42146;SDS011;27815;43.410;11.852;2023-05-23T02:27:37;7.65;;;4.40;;
42146;SDS011;27815;43.410;11.852;2023-05-23T02:32:02;7.80;;;5.28;;
42146;SDS011;27815;43.410;11.852;2023-05-23T02:36:06;7.93;;;5.30;;
42146;SDS011;27815;43.410;11.852;2023-05-23T02:40:11;9.57;;;5.60;;
42146;SDS011;27815;43.410;11.852;2023-05-23T02:44:22;8.77;;;5.32;;
42146;SDS011;27815;43.410;11.852;2023-05-23T02:48:25;10.18;;;6.25;;
42146;SDS011;27815;43.410;11.852;2023-05-23T02:52:29;9.35;;;5.47;;
42146;SDS011;27815;43.410;11.852;2023-05-23T02:56:31;7.70;;;5.18;;
42146;SDS011;27815;43.410;11.852;2023-05-23T03:00:34;10.27;;;5.97;;
42146;SDS011;27815;43.410;11.852;2023-05-23T03:04:38;13.75;;;7.32;;
42146;SDS011;27815;43.410;11.852;2023-05-23T03:08:41;7.70;;;5.60;;
42146;SDS011;27815;43.410;11.852;2023-05-23T03:12:45;9.68;;;6.25;;
42146;SDS011;27815;43.410;11.852;2023-05-23T03:16:50;11.55;;;6.25;;
42146;SDS011;27815;43.410;11.852;2023-05-23T03:20:53;8.55;;;5.65;;
42146;SDS011;27815;43.410;11.852;2023-05-23T03:24:58;8.60;;;4.88;;
42146;SDS011;27815;43.410;11.852;2023-05-23T03:29:04;8.07;;;5.15;;
42146;SDS011;27815;43.410;11.852;2023-05-23T03:33:09;9.32;;;4.78;;
42146;SDS011;27815;43.410;11.852;2023-05-23T03:37:13;7.90;;;5.43;;
42146;SDS011;27815;43.410;11.852;2023-05-23T03:41:19;8.48;;;6.32;;
42146;SDS011;27815;43.410;11.852;2023-05-23T03:45:29;9.90;;;5.60;;
42146;SDS011;27815;43.410;11.852;2023-05-23T03:49:36;9.23;;;5.50;;
42146;SDS011;27815;43.410;11.852;2023-05-23T03:53:39;9.38;;;5.63;;
42146;SDS011;27815;43.410;11.852;2023-05-23T03:57:48;11.50;;;5.47;;
42146;SDS011;27815;43.410;11.852;2023-05-23T04:02:01;8.90;;;5.68;;
42146;SDS011;27815;43.410;11.852;2023-05-23T04:06:05;9.63;;;6.20;;
42146;SDS011;27815;43.410;11.852;2023-05-23T04:10:12;10.43;;;5.85;;
42146;SDS011;27815;43.410;11.852;2023-05-23T04:14:24;10.32;;;5.20;;
42146;SDS011;27815;43.410;11.852;2023-05-23T04:18:32;9.93;;;5.43;;
42146;SDS011;27815;43.410;11.852;2023-05-23T04:22:37;10.18;;;5.68;;
42146;SDS011;27815;43.410;11.852;2023-05-23T04:26:40;8.02;;;5.13;;
42146;SDS011;27815;43.410;11.852;2023-05-23T04:30:44;8.93;;;5.57;;
42146;SDS011;27815;43.410;11.852;2023-05-23T04:34:48;13.02;;;6.90;;
42146;SDS011;27815;43.410;11.852;2023-05-23T04:38:54;9.43;;;6.15;;
42146;SDS011;27815;43.410;11.852;2023-05-23T04:42:57;7.35;;;4.50;;
42146;SDS011;27815;43.410;11.852;2023-05-23T04:47:26;16.70;;;7.47;;
42146;SDS011;27815;43.410;11.852;2023-05-23T04:51:37;13.70;;;7.57;;
42146;SDS011;27815;43.410;11.852;2023-05-23T04:55:54;11.38;;;7.07;;
42146;SDS011;27815;43.410;11.852;2023-05-23T04:59:57;10.25;;;6.38;;
42146;SDS011;27815;43.410;11.852;2023-05-23T05:04:02;10.43;;;6.82;;
42146;SDS011;27815;43.410;11.852;2023-05-23T05:08:06;11.05;;;6.70;;
42146;SDS011;27815;43.410;11.852;2023-05-23T05:12:12;11.85;;;6.47;;
42146;SDS011;27815;43.410;11.852;2023-05-23T05:16:15;12.18;;;7.22;;
42146;SDS011;27815;43.410;11.852;2023-05-23T05:20:19;11.35;;;7.53;;
42146;SDS011;27815;43.410;11.852;2023-05-23T05:24:24;12.63;;;7.72;;
42146;SDS011;27815;43.410;11.852;2023-05-23T05:28:28;13.13;;;8.30;;
42146;SDS011;27815;43.410;11.852;2023-05-23T05:32:32;11.55;;;7.55;;
42146;SDS011;27815;43.410;11.852;2023-05-23T05:36:42;12.68;;;8.13;;
42146;SDS011;27815;43.410;11.852;2023-05-23T05:40:51;18.35;;;10.68;;
42146;SDS011;27815;43.410;11.852;2023-05-23T05:45:00;18.98;;;11.07;;
42146;SDS011;27815;43.410;11.852;2023-05-23T05:49:05;16.08;;;10.80;;
42146;SDS011;27815;43.410;11.852;2023-05-23T05:53:08;18.10;;;11.27;;
42146;SDS011;27815;43.410;11.852;2023-05-23T05:57:13;14.90;;;9.82;;
42146;SDS011;27815;43.410;11.852;2023-05-23T06:01:16;17.13;;;9.23;;
42146;SDS011;27815;43.410;11.852;2023-05-23T06:05:19;15.68;;;10.63;;
42146;SDS011;27815;43.410;11.852;2023-05-23T06:09:22;14.88;;;10.68;;
42146;SDS011;27815;43.410;11.852;2023-05-23T06:13:25;13.68;;;9.27;;
42146;SDS011;27815;43.410;11.852;2023-05-23T06:17:28;12.82;;;8.52;;
42146;SDS011;27815;43.410;11.852;2023-05-23T06:21:32;13.95;;;10.30;;
42146;SDS011;27815;43.410;11.852;2023-05-23T06:25:36;13.48;;;9.32;;
42146;SDS011;27815;43.410;11.852;2023-05-23T06:29:40;13.77;;;9.15;;
42146;SDS011;27815;43.410;11.852;2023-05-23T06:33:43;12.02;;;9.25;;
42146;SDS011;27815;43.410;11.852;2023-05-23T06:37:46;12.95;;;9.48;;
42146;SDS011;27815;43.410;11.852;2023-05-23T06:41:49;14.10;;;9.82;;
42146;SDS011;27815;43.410;11.852;2023-05-23T06:45:53;9.73;;;8.10;;
42146;SDS011;27815;43.410;11.852;2023-05-23T06:49:56;12.45;;;8.95;;
42146;SDS011;27815;43.410;11.852;2023-05-23T06:53:59;11.30;;;8.32;;
42146;SDS011;27815;43.410;11.852;2023-05-23T06:58:03;10.40;;;8.35;;
42146;SDS011;27815;43.410;11.852;2023-05-23T07:02:07;10.23;;;7.90;;
42146;SDS011;27815;43.410;11.852;2023-05-23T07:06:11;11.82;;;9.25;;
42146;SDS011;27815;43.410;11.852;2023-05-23T07:10:15;10.55;;;7.95;;
42146;SDS011;27815;43.410;11.852;2023-05-23T07:14:21;10.57;;;7.93;;
42146;SDS011;27815;43.410;11.852;2023-05-23T07:18:24;8.68;;;7.47;;
42146;SDS011;27815;43.410;11.852;2023-05-23T07:22:28;9.70;;;8.70;;
42146;SDS011;27815;43.410;11.852;2023-05-23T07:26:31;10.18;;;9.27;;
42146;SDS011;27815;43.410;11.852;2023-05-23T07:30:34;10.98;;;9.98;;
42146;SDS011;27815;43.410;11.852;2023-05-23T07:34:38;10.40;;;9.50;;
42146;SDS011;27815;43.410;11.852;2023-05-23T07:38:41;10.30;;;9.25;;
42146;SDS011;27815;43.410;11.852;2023-05-23T07:42:44;9.95;;;9.10;;
42146;SDS011;27815;43.410;11.852;2023-05-23T07:46:47;12.65;;;9.82;;
42146;SDS011;27815;43.410;11.852;2023-05-23T07:50:50;10.35;;;9.10;;
42146;SDS011;27815;43.410;11.852;2023-05-23T07:54:57;9.93;;;9.07;;
42146;SDS011;27815;43.410;11.852;2023-05-23T07:59:02;9.80;;;8.93;;
42146;SDS011;27815;43.410;11.852;2023-05-23T08:03:05;9.77;;;8.77;;
42146;SDS011;27815;43.410;11.852;2023-05-23T08:07:15;10.95;;;9.88;;
42146;SDS011;27815;43.410;11.852;2023-05-23T08:11:25;9.25;;;8.35;;
42146;SDS011;27815;43.410;11.852;2023-05-23T08:15:30;8.90;;;8.10;;
42146;SDS011;27815;43.410;11.852;2023-05-23T08:19:42;9.02;;;8.20;;
42146;SDS011;27815;43.410;11.852;2023-05-23T08:23:45;9.43;;;8.20;;
42146;SDS011;27815;43.410;11.852;2023-05-23T08:27:48;9.18;;;8.27;;
42146;SDS011;27815;43.410;11.852;2023-05-23T08:32:07;8.98;;;7.90;;
42146;SDS011;27815;43.410;11.852;2023-05-23T08:36:10;8.77;;;7.85;;
42146;SDS011;27815;43.410;11.852;2023-05-23T08:40:13;8.07;;;7.28;;
42146;SDS011;27815;43.410;11.852;2023-05-23T08:44:29;8.45;;;6.93;;
42146;SDS011;27815;43.410;11.852;2023-05-23T08:48:35;10.63;;;7.05;;
42146;SDS011;27815;43.410;11.852;2023-05-23T08:52:55;7.80;;;7.00;;
42146;SDS011;27815;43.410;11.852;2023-05-23T08:56:59;7.65;;;6.95;;
42146;SDS011;27815;43.410;11.852;2023-05-23T09:01:07;7.20;;;6.50;;
42146;SDS011;27815;43.410;11.852;2023-05-23T09:05:15;9.98;;;6.50;;
42146;SDS011;27815;43.410;11.852;2023-05-23T09:09:19;7.32;;;5.55;;
42146;SDS011;27815;43.410;11.852;2023-05-23T09:13:22;7.22;;;5.68;;
42146;SDS011;27815;43.410;11.852;2023-05-23T09:17:29;7.03;;;5.72;;
42146;SDS011;27815;43.410;11.852;2023-05-23T09:21:33;7.60;;;5.57;;
42146;SDS011;27815;43.410;11.852;2023-05-23T09:25:46;8.45;;;4.85;;
42146;SDS011;27815;43.410;11.852;2023-05-23T09:29:50;7.15;;;4.75;;
42146;SDS011;27815;43.410;11.852;2023-05-23T09:33:54;6.10;;;4.60;;
42146;SDS011;27815;43.410;11.852;2023-05-23T09:37:57;7.70;;;4.70;;
42146;SDS011;27815;43.410;11.852;2023-05-23T09:42:04;6.22;;;4.50;;
42146;SDS011;27815;43.410;11.852;2023-05-23T09:46:10;8.15;;;4.65;;
42146;SDS011;27815;43.410;11.852;2023-05-23T09:50:13;7.47;;;4.18;;
42146;SDS011;27815;43.410;11.852;2023-05-23T09:54:16;5.80;;;3.97;;
42146;SDS011;27815;43.410;11.852;2023-05-23T09:58:19;6.95;;;4.10;;
42146;SDS011;27815;43.410;11.852;2023-05-23T10:06:49;5.80;;;4.28;;
42146;SDS011;27815;43.410;11.852;2023-05-23T10:15:02;8.77;;;4.78;;
42146;SDS011;27815;43.410;11.852;2023-05-23T10:19:09;4.80;;;3.55;;
42146;SDS011;27815;43.410;11.852;2023-05-23T10:23:20;5.70;;;3.90;;
42146;SDS011;27815;43.410;11.852;2023-05-23T10:27:24;6.68;;;4.13;;
42146;SDS011;27815;43.410;11.852;2023-05-23T10:31:28;6.10;;;4.40;;
42146;SDS011;27815;43.410;11.852;2023-05-23T10:44:46;6.57;;;4.07;;
42146;SDS011;27815;43.410;11.852;2023-05-23T10:48:52;6.00;;;3.85;;
42146;SDS011;27815;43.410;11.852;2023-05-23T10:53:02;5.65;;;4.00;;
42146;SDS011;27815;43.410;11.852;2023-05-23T10:57:06;6.43;;;4.20;;
42146;SDS011;27815;43.410;11.852;2023-05-23T11:01:12;6.45;;;4.13;;
42146;SDS011;27815;43.410;11.852;2023-05-23T11:05:21;6.43;;;4.23;;
42146;SDS011;27815;43.410;11.852;2023-05-23T11:09:26;5.85;;;4.18;;
42146;SDS011;27815;43.410;11.852;2023-05-23T11:18:02;6.50;;;4.00;;
42146;SDS011;27815;43.410;11.852;2023-05-23T11:22:08;6.22;;;4.22;;
42146;SDS011;27815;43.410;11.852;2023-05-23T11:26:35;6.07;;;3.95;;
42146;SDS011;27815;43.410;11.852;2023-05-23T11:30:35;7.00;;;3.83;;
42146;SDS011;27815;43.410;11.852;2023-05-23T11:34:39;5.38;;;3.65;;
42146;SDS011;27815;43.410;11.852;2023-05-23T11:38:42;6.60;;;3.92;;
42146;SDS011;27815;43.410;11.852;2023-05-23T11:42:46;6.45;;;4.38;;
42146;SDS011;27815;43.410;11.852;2023-05-23T11:47:01;6.93;;;3.80;;
42146;SDS011;27815;43.410;11.852;2023-05-23T11:51:05;5.75;;;4.03;;
42146;SDS011;27815;43.410;11.852;2023-05-23T11:55:08;5.55;;;3.83;;
42146;SDS011;27815;43.410;11.852;2023-05-23T11:59:11;6.22;;;4.20;;
42146;SDS011;27815;43.410;11.852;2023-05-23T12:03:14;6.80;;;3.90;;
42146;SDS011;27815;43.410;11.852;2023-05-23T12:07:18;4.90;;;3.60;;
42146;SDS011;27815;43.410;11.852;2023-05-23T12:11:22;7.13;;;4.05;;
42146;SDS011;27815;43.410;11.852;2023-05-23T12:15:26;4.97;;;3.63;;
42146;SDS011;27815;43.410;11.852;2023-05-23T12:19:29;7.60;;;4.50;;
42146;SDS011;27815;43.410;11.852;2023-05-23T12:23:33;6.78;;;4.50;;
42146;SDS011;27815;43.410;11.852;2023-05-23T12:27:38;6.72;;;3.97;;
42146;SDS011;27815;43.410;11.852;2023-05-23T12:31:42;8.35;;;4.50;;
42146;SDS011;27815;43.410;11.852;2023-05-23T12:35:45;7.20;;;4.05;;
42146;SDS011;27815;43.410;11.852;2023-05-23T12:39:48;6.43;;;4.20;;
42146;SDS011;27815;43.410;11.852;2023-05-23T12:43:52;6.57;;;3.38;;
42146;SDS011;27815;43.410;11.852;2023-05-23T12:47:56;5.80;;;4.25;;
42146;SDS011;27815;43.410;11.852;2023-05-23T12:51:58;7.68;;;3.60;;
42146;SDS011;27815;43.410;11.852;2023-05-23T12:56:02;5.65;;;3.42;;
42146;SDS011;27815;43.410;11.852;2023-05-23T13:00:05;6.75;;;3.78;;
42146;SDS011;27815;43.410;11.852;2023-05-23T13:04:08;6.50;;;3.40;;
42146;SDS011;27815;43.410;11.852;2023-05-23T13:08:11;6.68;;;3.67;;
42146;SDS011;27815;43.410;11.852;2023-05-23T13:12:14;6.50;;;3.38;;
42146;SDS011;27815;43.410;11.852;2023-05-23T13:16:17;5.13;;;2.75;;
42146;SDS011;27815;43.410;11.852;2023-05-23T13:20:21;5.32;;;3.10;;
42146;SDS011;27815;43.410;11.852;2023-05-23T13:24:24;5.63;;;3.30;;
42146;SDS011;27815;43.410;11.852;2023-05-23T13:28:27;5.13;;;2.90;;
42146;SDS011;27815;43.410;11.852;2023-05-23T13:32:30;5.57;;;2.58;;
42146;SDS011;27815;43.410;11.852;2023-05-23T13:36:33;5.20;;;2.83;;
42146;SDS011;27815;43.410;11.852;2023-05-23T13:40:36;4.40;;;2.72;;
42146;SDS011;27815;43.410;11.852;2023-05-23T13:44:39;5.75;;;2.70;;
42146;SDS011;27815;43.410;11.852;2023-05-23T13:48:42;5.22;;;3.25;;
42146;SDS011;27815;43.410;11.852;2023-05-23T13:52:45;6.18;;;2.40;;
42146;SDS011;27815;43.410;11.852;2023-05-23T13:56:50;5.55;;;2.80;;
42146;SDS011;27815;43.410;11.852;2023-05-23T14:00:53;4.38;;;2.70;;
42146;SDS011;27815;43.410;11.852;2023-05-23T14:04:56;6.57;;;3.17;;
42146;SDS011;27815;43.410;11.852;2023-05-23T14:08:59;4.45;;;2.67;;
42146;SDS011;27815;43.410;11.852;2023-05-23T14:13:03;4.70;;;2.70;;
42146;SDS011;27815;43.410;11.852;2023-05-23T14:17:18;5.40;;;3.20;;
42146;SDS011;27815;43.410;11.852;2023-05-23T14:21:20;5.50;;;3.15;;
42146;SDS011;27815;43.410;11.852;2023-05-23T14:25:23;5.03;;;3.17;;
42146;SDS011;27815;43.410;11.852;2023-05-23T14:29:26;4.93;;;2.90;;
42146;SDS011;27815;43.410;11.852;2023-05-23T14:33:29;5.70;;;3.15;;
42146;SDS011;27815;43.410;11.852;2023-05-23T14:37:32;4.43;;;2.80;;
42146;SDS011;27815;43.410;11.852;2023-05-23T14:41:35;5.43;;;3.10;;
42146;SDS011;27815;43.410;11.852;2023-05-23T14:45:38;7.00;;;3.58;;
42146;SDS011;27815;43.410;11.852;2023-05-23T14:49:42;5.15;;;3.35;;
42146;SDS011;27815;43.410;11.852;2023-05-23T14:53:45;5.00;;;2.85;;
42146;SDS011;27815;43.410;11.852;2023-05-23T14:57:48;4.90;;;3.10;;
42146;SDS011;27815;43.410;11.852;2023-05-23T15:01:52;4.95;;;2.97;;
42146;SDS011;27815;43.410;11.852;2023-05-23T15:05:56;6.07;;;3.13;;
42146;SDS011;27815;43.410;11.852;2023-05-23T15:09:58;6.10;;;3.38;;
42146;SDS011;27815;43.410;11.852;2023-05-23T15:14:06;4.68;;;2.90;;
42146;SDS011;27815;43.410;11.852;2023-05-23T15:18:09;4.95;;;2.95;;
42146;SDS011;27815;43.410;11.852;2023-05-23T15:22:20;5.00;;;3.10;;
42146;SDS011;27815;43.410;11.852;2023-05-23T15:26:40;8.13;;;3.10;;
42146;SDS011;27815;43.410;11.852;2023-05-23T15:30:43;4.13;;;2.78;;
42146;SDS011;27815;43.410;11.852;2023-05-23T15:34:45;5.03;;;3.10;;
42146;SDS011;27815;43.410;11.852;2023-05-23T15:38:48;6.75;;;2.80;;
42146;SDS011;27815;43.410;11.852;2023-05-23T15:42:51;4.13;;;2.65;;
42146;SDS011;27815;43.410;11.852;2023-05-23T15:46:54;4.75;;;3.00;;
42146;SDS011;27815;43.410;11.852;2023-05-23T15:50:57;4.30;;;3.00;;
42146;SDS011;27815;43.410;11.852;2023-05-23T15:55:00;5.82;;;2.60;;
42146;SDS011;27815;43.410;11.852;2023-05-23T15:59:06;5.95;;;2.75;;
42146;SDS011;27815;43.410;11.852;2023-05-23T16:03:10;5.25;;;3.00;;
42146;SDS011;27815;43.410;11.852;2023-05-23T16:07:13;7.30;;;3.92;;
42146;SDS011;27815;43.410;11.852;2023-05-23T16:11:19;6.28;;;4.10;;
42146;SDS011;27815;43.410;11.852;2023-05-23T16:15:23;5.72;;;3.13;;
42146;SDS011;27815;43.410;11.852;2023-05-23T16:19:25;5.82;;;3.13;;
42146;SDS011;27815;43.410;11.852;2023-05-23T16:23:29;5.15;;;2.97;;
42146;SDS011;27815;43.410;11.852;2023-05-23T16:27:32;7.40;;;3.28;;
42146;SDS011;27815;43.410;11.852;2023-05-23T16:31:35;4.68;;;3.05;;
42146;SDS011;27815;43.410;11.852;2023-05-23T16:35:38;5.30;;;3.30;;
42146;SDS011;27815;43.410;11.852;2023-05-23T16:39:41;6.60;;;3.17;;
42146;SDS011;27815;43.410;11.852;2023-05-23T16:43:44;7.60;;;3.47;;
42146;SDS011;27815;43.410;11.852;2023-05-23T16:47:47;5.50;;;3.42;;
42146;SDS011;27815;43.410;11.852;2023-05-23T16:51:50;8.55;;;3.78;;
42146;SDS011;27815;43.410;11.852;2023-05-23T16:55:53;5.53;;;3.65;;
42146;SDS011;27815;43.410;11.852;2023-05-23T16:59:56;6.05;;;3.95;;
42146;SDS011;27815;43.410;11.852;2023-05-23T17:03:59;5.43;;;3.45;;
42146;SDS011;27815;43.410;11.852;2023-05-23T17:08:02;5.97;;;3.95;;
42146;SDS011;27815;43.410;11.852;2023-05-23T17:12:08;7.37;;;4.20;;
42146;SDS011;27815;43.410;11.852;2023-05-23T17:16:11;8.45;;;4.57;;
42146;SDS011;27815;43.410;11.852;2023-05-23T17:20:22;6.97;;;4.07;;
42146;SDS011;27815;43.410;11.852;2023-05-23T17:24:29;6.88;;;4.10;;
42146;SDS011;27815;43.410;11.852;2023-05-23T17:28:33;6.32;;;4.25;;
42146;SDS011;27815;43.410;11.852;2023-05-23T17:32:36;7.45;;;4.80;;
42146;SDS011;27815;43.410;11.852;2023-05-23T17:36:41;6.80;;;4.43;;
42146;SDS011;27815;43.410;11.852;2023-05-23T17:40:45;7.15;;;4.75;;
42146;SDS011;27815;43.410;11.852;2023-05-23T17:44:49;6.85;;;4.40;;
42146;SDS011;27815;43.410;11.852;2023-05-23T17:48:52;6.72;;;4.32;;
42146;SDS011;27815;43.410;11.852;2023-05-23T17:52:55;5.90;;;3.83;;
42146;SDS011;27815;43.410;11.852;2023-05-23T17:56:58;7.18;;;4.10;;
42146;SDS011;27815;43.410;11.852;2023-05-23T18:01:01;8.75;;;4.35;;
42146;SDS011;27815;43.410;11.852;2023-05-23T18:05:05;6.03;;;4.13;;
42146;SDS011;27815;43.410;11.852;2023-05-23T18:09:08;5.90;;;4.25;;
42146;SDS011;27815;43.410;11.852;2023-05-23T18:13:12;5.90;;;3.83;;
42146;SDS011;27815;43.410;11.852;2023-05-23T18:17:15;6.07;;;4.93;;
42146;SDS011;27815;43.410;11.852;2023-05-23T18:21:20;6.10;;;4.30;;
42146;SDS011;27815;43.410;11.852;2023-05-23T18:25:24;8.90;;;4.85;;
42146;SDS011;27815;43.410;11.852;2023-05-23T18:29:31;5.88;;;4.80;;
42146;SDS011;27815;43.410;11.852;2023-05-23T18:33:34;7.10;;;4.82;;
42146;SDS011;27815;43.410;11.852;2023-05-23T18:37:37;22.23;;;14.40;;
42146;SDS011;27815;43.410;11.852;2023-05-23T18:41:41;10.38;;;7.22;;
42146;SDS011;27815;43.410;11.852;2023-05-23T18:45:44;42.13;;;24.42;;
42146;SDS011;27815;43.410;11.852;2023-05-23T18:49:50;9.35;;;7.28;;
42146;SDS011;27815;43.410;11.852;2023-05-23T18:53:53;8.32;;;6.32;;
42146;SDS011;27815;43.410;11.852;2023-05-23T18:57:57;43.85;;;30.55;;
42146;SDS011;27815;43.410;11.852;2023-05-23T19:02:00;72.50;;;42.42;;
42146;SDS011;27815;43.410;11.852;2023-05-23T19:06:03;92.28;;;60.03;;
42146;SDS011;27815;43.410;11.852;2023-05-23T19:10:08;168.10;;;81.10;;
42146;SDS011;27815;43.410;11.852;2023-05-23T19:14:11;324.17;;;160.48;;
42146;SDS011;27815;43.410;11.852;2023-05-23T19:18:15;63.15;;;40.00;;
42146;SDS011;27815;43.410;11.852;2023-05-23T19:22:20;37.80;;;26.30;;
42146;SDS011;27815;43.410;11.852;2023-05-23T19:26:23;27.23;;;18.05;;
42146;SDS011;27815;43.410;11.852;2023-05-23T19:30:26;21.00;;;12.75;;
42146;SDS011;27815;43.410;11.852;2023-05-23T19:34:29;12.30;;;9.23;;
42146;SDS011;27815;43.410;11.852;2023-05-23T19:38:32;10.57;;;9.20;;
42146;SDS011;27815;43.410;11.852;2023-05-23T19:42:36;12.23;;;9.45;;
42146;SDS011;27815;43.410;11.852;2023-05-23T19:46:39;9.13;;;8.05;;
42146;SDS011;27815;43.410;11.852;2023-05-23T19:50:42;7.88;;;6.97;;
42146;SDS011;27815;43.410;11.852;2023-05-23T19:54:46;8.30;;;6.55;;
42146;SDS011;27815;43.410;11.852;2023-05-23T19:58:49;6.40;;;5.72;;
42146;SDS011;27815;43.410;11.852;2023-05-23T20:02:52;6.20;;;5.60;;
42146;SDS011;27815;43.410;11.852;2023-05-23T20:06:57;6.30;;;5.28;;
42146;SDS011;27815;43.410;11.852;2023-05-23T20:11:00;7.00;;;6.30;;
42146;SDS011;27815;43.410;11.852;2023-05-23T20:15:04;9.40;;;6.60;;
42146;SDS011;27815;43.410;11.852;2023-05-23T20:19:09;9.30;;;7.00;;
42146;SDS011;27815;43.410;11.852;2023-05-23T20:23:12;7.47;;;6.35;;
42146;SDS011;27815;43.410;11.852;2023-05-23T20:27:19;9.20;;;6.23;;
42146;SDS011;27815;43.410;11.852;2023-05-23T20:31:31;6.25;;;4.70;;
42146;SDS011;27815;43.410;11.852;2023-05-23T20:35:36;7.50;;;4.93;;
42146;SDS011;27815;43.410;11.852;2023-05-23T20:39:43;7.50;;;4.50;;
42146;SDS011;27815;43.410;11.852;2023-05-23T20:43:53;5.60;;;3.92;;
42146;SDS011;27815;43.410;11.852;2023-05-23T20:47:56;5.80;;;3.85;;
42146;SDS011;27815;43.410;11.852;2023-05-23T20:52:00;4.72;;;3.60;;
42146;SDS011;27815;43.410;11.852;2023-05-23T20:56:08;4.40;;;3.25;;
42146;SDS011;27815;43.410;11.852;2023-05-23T21:00:11;4.60;;;3.63;;
42146;SDS011;27815;43.410;11.852;2023-05-23T21:04:14;4.63;;;2.95;;
42146;SDS011;27815;43.410;11.852;2023-05-23T21:08:20;5.57;;;3.15;;
42146;SDS011;27815;43.410;11.852;2023-05-23T21:12:23;5.35;;;3.05;;
42146;SDS011;27815;43.410;11.852;2023-05-23T21:16:26;5.20;;;3.28;;
42146;SDS011;27815;43.410;11.852;2023-05-23T21:20:30;4.32;;;3.03;;
42146;SDS011;27815;43.410;11.852;2023-05-23T21:24:33;4.78;;;3.45;;
42146;SDS011;27815;43.410;11.852;2023-05-23T21:28:37;4.22;;;3.00;;
42146;SDS011;27815;43.410;11.852;2023-05-23T21:32:41;5.22;;;2.83;;
42146;SDS011;27815;43.410;11.852;2023-05-23T21:36:44;5.38;;;3.40;;
42146;SDS011;27815;43.410;11.852;2023-05-23T21:40:47;5.35;;;3.55;;
42146;SDS011;27815;43.410;11.852;2023-05-23T21:44:50;5.03;;;3.42;;
42146;SDS011;27815;43.410;11.852;2023-05-23T21:48:53;5.78;;;2.95;;
42146;SDS011;27815;43.410;11.852;2023-05-23T21:52:56;4.07;;;2.78;;
42146;SDS011;27815;43.410;11.852;2023-05-23T21:56:59;4.85;;;2.75;;
42146;SDS011;27815;43.410;11.852;2023-05-23T22:01:02;5.30;;;2.72;;
42146;SDS011;27815;43.410;11.852;2023-05-23T22:05:07;4.97;;;2.90;;
42146;SDS011;27815;43.410;11.852;2023-05-23T22:09:11;4.22;;;2.67;;
42146;SDS011;27815;43.410;11.852;2023-05-23T22:13:15;5.72;;;3.30;;
42146;SDS011;27815;43.410;11.852;2023-05-23T22:17:18;5.03;;;2.90;;
42146;SDS011;27815;43.410;11.852;2023-05-23T22:21:24;4.57;;;2.90;;
42146;SDS011;27815;43.410;11.852;2023-05-23T22:25:27;6.30;;;3.17;;
42146;SDS011;27815;43.410;11.852;2023-05-23T22:29:33;6.17;;;3.40;;
42146;SDS011;27815;43.410;11.852;2023-05-23T22:33:41;5.95;;;3.45;;
42146;SDS011;27815;43.410;11.852;2023-05-23T22:37:44;5.50;;;3.50;;
42146;SDS011;27815;43.410;11.852;2023-05-23T22:41:48;6.38;;;3.55;;
42146;SDS011;27815;43.410;11.852;2023-05-23T22:45:51;4.90;;;3.03;;
42146;SDS011;27815;43.410;11.852;2023-05-23T22:49:54;7.05;;;3.08;;
42146;SDS011;27815;43.410;11.852;2023-05-23T22:54:00;5.07;;;2.97;;
42146;SDS011;27815;43.410;11.852;2023-05-23T22:58:03;5.25;;;3.30;;
42146;SDS011;27815;43.410;11.852;2023-05-23T23:02:09;5.30;;;3.13;;
42146;SDS011;27815;43.410;11.852;2023-05-23T23:06:12;5.55;;;3.60;;
42146;SDS011;27815;43.410;11.852;2023-05-23T23:10:14;5.43;;;3.45;;
42146;SDS011;27815;43.410;11.852;2023-05-23T23:14:19;8.32;;;3.53;;
42146;SDS011;27815;43.410;11.852;2023-05-23T23:18:23;7.57;;;3.67;;
42146;SDS011;27815;43.410;11.852;2023-05-23T23:22:26;6.15;;;3.70;;
42146;SDS011;27815;43.410;11.852;2023-05-23T23:26:29;6.40;;;3.90;;
42146;SDS011;27815;43.410;11.852;2023-05-23T23:30:32;6.30;;;3.60;;
42146;SDS011;27815;43.410;11.852;2023-05-23T23:34:35;6.35;;;4.25;;
42146;SDS011;27815;43.410;11.852;2023-05-23T23:38:38;5.78;;;3.50;;
42146;SDS011;27815;43.410;11.852;2023-05-23T23:42:41;5.50;;;3.97;;
42146;SDS011;27815;43.410;11.852;2023-05-23T23:46:43;6.28;;;4.22;;
42146;SDS011;27815;43.410;11.852;2023-05-23T23:50:47;6.95;;;3.63;;
42146;SDS011;27815;43.410;11.852;2023-05-23T23:54:49;5.72;;;3.60;;
42146;SDS011;27815;43.410;11.852;2023-05-23T23:58:52;6.18;;;3.72;;
